Snug Harbor, Washington
Current Conditions -  °F | °C
As of 3:53 AM on Monday 24 Nov 2014 (Local Time) from KBLI Reporting Station
Overcast Overcast  
Wind Chill: 44°   Ceiling: 6000
Heat Index: 47°   Visibility: 10mi
Dew Point: 42°   Wind: 7mph
Humidity: 83%   Direction: 170°S
Pressure: 30.35"   Gusts: NA
Location:  48.6939°N, 122.666°W
Report Text: KBLI 241153Z AUTO 17006KT 10SM SCT041 OVC060 08/06 A3035 RMK AO2 SLP284 70008 T00830056 10083 20033 51007
Loading
Personal Weather Stations






























Interactive Weather Map New forecast layout! Learn more

10-Day Weather Forecast

Advertisements
Track Severe Weather on mobile